Etusivu
METAR-TAF:

METAR-TAF

Lentoasemat :

Syltin lentoasema

Westerland, Saksa

Leveyspiiri: 54-55N, Pituuspiiri: 008-21E, korkeus merenpinnasta: 16 m

Tämänhetkinen sää

Tämä raportti tehtiin 43 minuuttia sitten, kello 20.50 UTC
Tuuli 11 kn idästä
Lämpötila 6°C
Kosteus 56%
Ilmanpaine 1027 hPa
Näkyvyys 10 km tai enemmän

METAR: EDXW 212050Z AUTO 08011KT 9999 // OVC170/// 06/M02 Q1027

Aika: 23:33 (21:33 UTC)

Sääennuste

Tämä raportti tehtiin 4 tuntia ja 33 minuuttia sitten, kello 17.00 UTC
Ennuste voimassa 21. päivästä klo 18 UTC - 21. päivään klo 21 UTC
Tuuli 11 kn pohjoisesta
Näkyvyys 10 km tai enemmän
ei pilviä alle 1500 m:ssä eikä cumulonimbus-pilviä
Tulossa
21. päivästä klo 18 UTC - 21. päivään klo 20 UTC
Tuuli 10 kn idästä/koillisesta

TAF: EDXW 211700Z 2118/2121 36011KT CAVOK BECMG 2118/2120 07010KT

Säähavainnot ja -ennusteet yli 4000 lentoasemalta (METAR- ja TAF-raportit).

Käytössä olevat sääasemat on merkitty karttaan keltaisilla ja punaisilla pisteillä.

Aseta hiiri pisteen päälle nähdäksesi sääaseman nimen.

Klikkaa sitten nähdäksesi säähavainnot ja -ennusteet.

Kartan vaihtaminen: klikkaa mustalla rastilla varustettuja vihreitä pisteitä, niin voit zoomata sisään; viivalla varustettua vihreää pistettä, niin voit zoomata ulos tai vihreitä nuolia, niin pääset viereisille kartoille.


METAR-TAF: